createdAt,value
2023-03-17T00:01:38.125Z,74.90
2023-03-17T00:04:05.900Z,74.80
2023-03-17T00:06:35.169Z,74.62
2023-03-17T00:09:02.110Z,75.06
2023-03-17T00:11:28.944Z,69.73
2023-03-17T00:13:55.686Z,67.91
2023-03-17T00:16:27.113Z,67.14
2023-03-17T00:18:55.682Z,67.19
2023-03-17T00:21:28.918Z,66.85
2023-03-17T00:23:56.266Z,66.48
2023-03-17T00:26:23.421Z,67.40
2023-03-17T00:28:51.152Z,66.60
2023-03-17T00:31:21.302Z,66.59
2023-03-17T00:33:50.582Z,66.20
2023-03-17T00:36:20.044Z,66.09
2023-03-17T00:38:47.354Z,65.92
2023-03-17T00:41:14.446Z,65.77
2023-03-17T00:43:41.477Z,65.65
2023-03-17T00:46:35.755Z,65.52
2023-03-17T00:49:20.976Z,65.73
2023-03-17T00:51:49.740Z,65.76
2023-03-17T00:54:18.678Z,65.70
2023-03-17T00:56:46.156Z,65.58
2023-03-17T00:59:26.306Z,64.82
2023-03-17T01:01:53.331Z,64.07
2023-03-17T01:04:20.965Z,64.16
2023-03-17T01:06:49.624Z,64.58
2023-03-17T01:09:20.400Z,65.54
2023-03-17T01:11:48.605Z,65.79
2023-03-17T01:14:15.839Z,65.89
2023-03-17T01:16:43.029Z,65.72
2023-03-17T01:19:13.140Z,65.36
2023-03-17T01:21:40.797Z,65.78
2023-03-17T01:24:08.438Z,66.00
2023-03-17T01:26:35.351Z,65.54
2023-03-17T01:29:02.290Z,65.20
2023-03-17T01:31:29.556Z,65.22
2023-03-17T01:33:56.894Z,64.79
2023-03-17T01:36:24.026Z,65.90
2023-03-17T01:38:51.103Z,65.43
2023-03-17T01:41:18.927Z,65.17
2023-03-17T01:43:45.729Z,66.12
2023-03-17T01:46:34.233Z,67.99
2023-03-17T01:49:01.225Z,67.79
2023-03-17T01:51:46.762Z,69.78
2023-03-17T01:54:22.513Z,71.06
2023-03-17T01:56:52.390Z,71.50
2023-03-17T01:59:31.028Z,72.26
2023-03-17T02:02:03.654Z,72.05
2023-03-17T02:04:31.344Z,73.15
2023-03-17T02:06:59.211Z,71.21
2023-03-17T02:09:28.374Z,71.07
2023-03-17T02:11:56.616Z,73.90
2023-03-17T02:14:23.797Z,70.15
2023-03-17T02:16:50.770Z,68.86
2023-03-17T02:19:17.610Z,68.19
2023-03-17T02:21:47.704Z,68.48
2023-03-17T02:24:32.110Z,67.99
2023-03-17T02:27:08.358Z,66.88
2023-03-17T02:29:37.873Z,68.10
2023-03-17T02:32:05.874Z,68.35
2023-03-17T02:34:34.397Z,67.68
2023-03-17T02:37:01.204Z,67.86
2023-03-17T02:39:30.792Z,69.51
2023-03-17T02:41:58.619Z,68.14
2023-03-17T02:44:25.948Z,67.50
2023-03-17T02:46:53.983Z,68.39
2023-03-17T02:49:21.161Z,68.25
2023-03-17T02:51:48.183Z,68.47
2023-03-17T02:54:15.095Z,68.43
2023-03-17T02:56:41.983Z,68.45
2023-03-17T02:59:09.256Z,68.33
2023-03-17T03:01:36.357Z,68.10
2023-03-17T03:04:04.030Z,68.26
2023-03-17T03:06:31.747Z,68.03
2023-03-17T03:08:58.661Z,68.09
2023-03-17T03:11:25.600Z,67.69
2023-03-17T03:13:52.520Z,67.53
2023-03-17T03:16:19.346Z,67.58
2023-03-17T03:18:46.487Z,68.00
2023-03-17T03:21:13.886Z,67.92
2023-03-17T03:23:40.691Z,69.31
2023-03-17T03:26:07.773Z,69.00
2023-03-17T03:28:34.836Z,68.79
2023-03-17T03:31:01.974Z,68.63
2023-03-17T03:33:28.899Z,68.56
2023-03-17T03:35:55.676Z,68.59
2023-03-17T03:38:22.643Z,68.26
2023-03-17T03:40:49.411Z,70.34
2023-03-17T03:43:23.269Z,69.42
2023-03-17T03:45:51.358Z,69.26
2023-03-17T03:48:18.604Z,68.79
2023-03-17T03:50:45.725Z,68.73
2023-03-17T03:53:12.717Z,69.31
2023-03-17T03:55:39.676Z,69.04
2023-03-17T03:58:06.862Z,69.59
2023-03-17T04:00:34.326Z,70.51
2023-03-17T04:03:01.588Z,71.86
2023-03-17T04:05:28.472Z,71.64
2023-03-17T04:07:55.278Z,70.93
2023-03-17T04:10:23.194Z,70.23
2023-03-17T04:12:50.056Z,70.26
2023-03-17T04:15:18.479Z,69.95
2023-03-17T04:17:45.642Z,69.65
2023-03-17T04:20:14.296Z,69.57
2023-03-17T04:22:42.106Z,69.45
2023-03-17T04:25:10.711Z,69.51
2023-03-17T04:27:37.773Z,69.65
2023-03-17T04:30:05.988Z,69.61
2023-03-17T04:32:33.297Z,69.55
2023-03-17T04:35:00.137Z,69.75
2023-03-17T04:37:27.017Z,69.71
2023-03-17T04:39:55.157Z,69.65
2023-03-17T04:42:22.055Z,69.95
2023-03-17T04:44:48.766Z,70.10
2023-03-17T04:47:15.506Z,70.15
2023-03-17T04:49:42.303Z,70.03
2023-03-17T04:52:09.253Z,69.68
2023-03-17T04:54:36.486Z,69.60
2023-03-17T04:57:03.377Z,69.50
2023-03-17T04:59:30.200Z,69.69
2023-03-17T05:01:56.972Z,70.21
2023-03-17T05:04:31.618Z,69.79
2023-03-17T05:06:59.178Z,69.63
2023-03-17T05:09:27.210Z,69.33
2023-03-17T05:11:54.467Z,69.37
2023-03-17T05:14:21.556Z,69.26
2023-03-17T05:16:48.880Z,69.45
2023-03-17T05:19:16.545Z,69.62
2023-03-17T05:21:43.787Z,69.06
2023-03-17T05:24:10.922Z,68.89
2023-03-17T05:26:37.965Z,68.63
2023-03-17T05:29:04.842Z,68.41
2023-03-17T05:31:32.050Z,68.33
2023-03-17T05:33:58.995Z,67.95
2023-03-17T05:36:25.862Z,68.87
2023-03-17T05:38:52.741Z,68.80
2023-03-17T05:41:19.888Z,68.90
2023-03-17T05:43:46.925Z,68.91
2023-03-17T05:46:13.845Z,69.28
2023-03-17T05:48:40.974Z,69.26
2023-03-17T05:51:08.379Z,70.42
2023-03-17T05:53:36.330Z,70.17
2023-03-17T05:56:03.554Z,70.20
2023-03-17T05:58:30.827Z,70.32
2023-03-17T06:00:57.621Z,70.61
2023-03-17T06:03:24.465Z,70.42
2023-03-17T06:05:51.716Z,70.04
2023-03-17T06:08:18.668Z,70.04
2023-03-17T06:10:45.810Z,69.92
2023-03-17T06:13:12.899Z,69.21
2023-03-17T06:15:39.772Z,68.55
2023-03-17T06:18:07.446Z,68.37
2023-03-17T06:20:34.779Z,68.82
2023-03-17T06:23:04.929Z,68.54
2023-03-17T06:25:35.467Z,68.39
2023-03-17T06:28:04.156Z,68.65
2023-03-17T06:30:35.021Z,68.28
2023-03-17T06:33:02.567Z,68.27
2023-03-17T06:35:31.273Z,68.70
2023-03-17T06:37:58.315Z,69.14
2023-03-17T06:40:25.181Z,70.47
2023-03-17T06:42:52.612Z,72.63
2023-03-17T06:45:19.381Z,72.35
2023-03-17T06:47:46.421Z,73.21
2023-03-17T06:50:13.442Z,74.20
2023-03-17T06:52:40.871Z,74.22
2023-03-17T06:55:08.661Z,74.50
2023-03-17T06:57:35.827Z,74.00
2023-03-17T07:00:06.282Z,74.35
2023-03-17T07:02:33.923Z,74.03
2023-03-17T07:05:01.165Z,73.83
2023-03-17T07:07:28.287Z,74.07
2023-03-17T07:09:55.164Z,74.29
2023-03-17T07:12:22.232Z,74.39
2023-03-17T07:14:49.074Z,74.39
2023-03-17T07:17:16.193Z,74.74
2023-03-17T07:19:43.657Z,74.62
2023-03-17T07:22:12.172Z,74.88
2023-03-17T07:24:39.725Z,74.89
2023-03-17T07:27:07.081Z,74.71
2023-03-17T07:29:34.635Z,74.27
2023-03-17T07:32:02.141Z,76.33
2023-03-17T07:34:28.972Z,69.01
2023-03-17T07:36:55.740Z,69.03
2023-03-17T07:39:22.497Z,68.34
2023-03-17T07:41:55.247Z,69.52
2023-03-17T07:44:23.321Z,69.17
2023-03-17T07:46:51.639Z,65.74
2023-03-17T07:49:25.168Z,66.92
2023-03-17T07:52:01.020Z,66.36
2023-03-17T07:54:29.170Z,65.17
2023-03-17T07:56:56.509Z,66.48
2023-03-17T07:59:23.505Z,66.34
2023-03-17T08:01:50.689Z,68.16
2023-03-17T08:04:17.750Z,68.82
2023-03-17T08:06:46.962Z,69.91
2023-03-17T08:09:13.809Z,70.41
2023-03-17T08:11:40.705Z,70.95
2023-03-17T08:14:07.980Z,70.90
2023-03-17T08:16:34.708Z,70.91
2023-03-17T08:19:03.892Z,71.27
2023-03-17T08:21:31.056Z,70.95
2023-03-17T08:23:58.012Z,70.40
2023-03-17T08:26:25.497Z,70.37
2023-03-17T08:28:52.338Z,70.21
2023-03-17T08:31:21.630Z,69.79
2023-03-17T08:33:51.511Z,69.72
2023-03-17T08:36:19.785Z,69.34
2023-03-17T08:38:47.577Z,68.94
2023-03-17T08:41:18.356Z,68.54
2023-03-17T08:43:46.197Z,68.21
2023-03-17T08:46:21.644Z,68.29
2023-03-17T08:48:51.097Z,68.11
2023-03-17T08:51:21.491Z,67.49
2023-03-17T08:53:50.277Z,67.31
2023-03-17T08:56:17.635Z,67.18
2023-03-17T08:58:45.179Z,67.87
2023-03-17T09:01:12.508Z,67.71
2023-03-17T09:03:41.230Z,67.72
2023-03-17T09:06:11.652Z,67.63
2023-03-17T09:08:41.256Z,67.52
2023-03-17T09:11:09.735Z,67.49
2023-03-17T09:13:39.110Z,67.10
2023-03-17T09:16:08.193Z,66.51
2023-03-17T09:18:35.098Z,66.59
2023-03-17T09:21:05.209Z,66.34
2023-03-17T09:23:32.968Z,66.19
2023-03-17T09:26:00.939Z,65.85
2023-03-17T09:28:29.245Z,65.69
2023-03-17T09:31:01.305Z,65.88
2023-03-17T09:33:29.280Z,65.52
2023-03-17T09:35:59.177Z,65.64
2023-03-17T09:38:27.507Z,65.69
2023-03-17T09:41:01.960Z,65.26
2023-03-17T09:43:40.717Z,65.25
2023-03-17T09:46:38.003Z,65.19
2023-03-17T09:49:12.599Z,65.42
2023-03-17T09:51:40.121Z,65.40
2023-03-17T09:54:29.684Z,65.12
2023-03-17T09:57:09.935Z,65.65
2023-03-17T09:59:47.414Z,65.50
2023-03-17T10:02:23.498Z,64.99
2023-03-17T10:04:50.532Z,64.84
2023-03-17T10:07:26.159Z,64.87
2023-03-17T10:10:01.534Z,64.19
2023-03-17T10:12:43.122Z,64.38
2023-03-17T10:15:43.088Z,64.68
2023-03-17T10:18:16.735Z,64.96
2023-03-17T12:11:41.727Z,67.69
2023-03-17T12:14:28.600Z,67.31
2023-03-17T12:17:20.929Z,66.89
2023-03-17T12:20:06.445Z,66.70
2023-03-17T12:22:59.691Z,65.97
2023-03-17T12:25:40.481Z,65.60
2023-03-17T12:28:20.204Z,64.90
2023-03-17T12:30:54.350Z,64.90
2023-03-17T12:33:30.894Z,63.84
2023-03-17T12:36:01.273Z,64.39
2023-03-17T12:38:35.785Z,64.76
2023-03-17T12:41:24.266Z,64.80
2023-03-17T12:44:20.610Z,65.26
2023-03-17T12:47:18.043Z,65.62
2023-03-17T12:50:05.839Z,65.91
2023-03-17T12:52:38.539Z,65.10
2023-03-17T12:55:12.611Z,65.44
2023-03-17T12:57:45.897Z,65.47
2023-03-17T13:00:29.662Z,65.32
2023-03-17T13:03:13.499Z,65.50
2023-03-17T13:05:46.582Z,65.55
2023-03-17T13:08:35.014Z,65.57
2023-03-17T13:11:18.716Z,66.20
2023-03-17T13:13:54.777Z,66.34
2023-03-17T13:16:44.801Z,66.92
2023-03-17T13:19:16.466Z,67.49
2023-03-17T13:21:51.924Z,67.32
2023-03-17T13:24:22.015Z,66.49
2023-03-17T13:26:55.339Z,66.60
2023-03-17T13:29:34.854Z,66.01
2023-03-17T13:32:17.148Z,65.90
2023-03-17T13:35:17.603Z,65.83
2023-03-17T13:38:29.102Z,65.41
2023-03-17T13:41:35.974Z,66.55
2023-03-17T13:44:27.848Z,66.21
2023-03-17T13:46:54.920Z,65.71
2023-03-17T13:49:32.519Z,65.48
2023-03-17T13:52:27.543Z,65.77
2023-03-17T13:55:26.393Z,65.25
2023-03-17T13:58:17.647Z,65.19
2023-03-17T14:00:55.280Z,65.64
2023-03-17T14:03:50.574Z,65.96
2023-03-17T14:06:21.664Z,65.88
2023-03-17T14:08:59.593Z,64.94
2023-03-17T14:11:35.945Z,64.23
2023-03-17T14:14:32.041Z,64.22
2023-03-17T14:17:12.246Z,65.26
2023-03-17T14:19:41.673Z,65.86
2023-03-17T14:22:25.383Z,66.53
2023-03-17T14:24:54.108Z,66.17
2023-03-17T14:27:24.059Z,66.49
2023-03-17T14:29:52.388Z,66.90
2023-03-17T14:32:21.778Z,66.73
2023-03-17T14:34:56.224Z,66.54
2023-03-17T14:37:23.615Z,65.94
2023-03-17T14:39:53.724Z,65.86
2023-03-17T14:42:27.016Z,65.90
2023-03-17T14:45:08.580Z,64.54
2023-03-17T14:47:41.592Z,65.45
2023-03-17T14:50:29.777Z,65.09
2023-03-17T14:52:59.403Z,66.99
2023-03-17T14:55:37.121Z,67.48
2023-03-17T14:58:20.947Z,67.71
2023-03-17T15:01:02.390Z,67.29
2023-03-17T15:03:33.078Z,66.52
2023-03-17T15:06:23.571Z,65.66
2023-03-17T15:08:51.253Z,66.42
2023-03-17T15:11:24.423Z,65.95
2023-03-17T15:14:04.858Z,65.47
2023-03-17T15:16:36.181Z,66.19
2023-03-17T15:19:21.714Z,65.59
2023-03-17T15:21:49.469Z,65.66
2023-03-17T15:24:22.318Z,65.84
2023-03-17T15:26:49.238Z,65.91
2023-03-17T15:29:16.428Z,65.74
2023-03-17T15:31:43.223Z,65.57
2023-03-17T15:34:14.773Z,65.35
2023-03-17T15:36:43.542Z,65.77
2023-03-17T15:39:10.706Z,65.98
2023-03-17T15:41:37.526Z,65.96
2023-03-17T15:44:05.340Z,66.17
2023-03-17T15:46:33.731Z,65.77
2023-03-17T15:49:00.996Z,65.98
2023-03-17T15:51:27.995Z,66.05
2023-03-17T15:53:54.805Z,66.07
2023-03-17T15:56:21.863Z,65.60
2023-03-17T15:58:51.553Z,65.53
2023-03-17T16:01:19.405Z,65.71
2023-03-17T16:03:47.394Z,66.10
2023-03-17T16:06:22.516Z,65.67
2023-03-17T16:08:50.320Z,65.87
2023-03-17T16:11:25.503Z,66.23
2023-03-17T16:13:52.324Z,66.76
2023-03-17T16:16:29.405Z,67.24
2023-03-17T16:18:56.250Z,66.72
2023-03-17T16:21:23.032Z,66.96
2023-03-17T16:23:50.316Z,67.06
2023-03-17T16:26:17.295Z,67.73
2023-03-17T16:28:46.347Z,67.56
2023-03-17T16:31:22.631Z,67.01
2023-03-17T16:33:50.674Z,67.35
2023-03-17T16:36:19.481Z,67.10
2023-03-17T16:38:47.698Z,67.50
2023-03-17T16:41:27.280Z,67.18
2023-03-17T16:44:00.328Z,67.51
2023-03-17T16:46:29.991Z,67.55
2023-03-17T16:48:56.799Z,67.67
2023-03-17T16:51:24.978Z,68.08
2023-03-17T16:53:51.998Z,68.11
2023-03-17T16:56:21.424Z,68.21
2023-03-17T16:58:49.143Z,68.56
2023-03-17T17:01:19.472Z,68.88
2023-03-17T17:03:46.814Z,69.22
2023-03-17T17:06:14.516Z,69.89
2023-03-17T17:08:43.148Z,69.85
2023-03-17T17:11:13.057Z,69.94
2023-03-17T17:13:44.779Z,69.88
2023-03-17T17:16:31.073Z,69.55
2023-03-17T17:18:59.151Z,70.12
2023-03-17T17:21:26.515Z,70.62
2023-03-17T17:23:53.552Z,71.08
2023-03-17T17:26:21.256Z,70.69
2023-03-17T17:28:48.341Z,71.22
2023-03-17T17:31:15.447Z,72.00
2023-03-17T17:33:42.277Z,72.31
2023-03-17T17:36:15.024Z,72.35
2023-03-17T17:38:42.668Z,72.34
2023-03-17T17:41:11.173Z,72.46
2023-03-17T17:43:38.456Z,73.08
2023-03-17T17:46:11.693Z,72.76
2023-03-17T17:48:38.475Z,72.88
2023-03-17T17:51:05.494Z,73.17
2023-03-17T17:53:32.465Z,73.36
2023-03-17T17:55:59.228Z,74.11
2023-03-17T17:58:26.979Z,73.74
2023-03-17T18:00:57.180Z,73.85
2023-03-17T18:03:25.648Z,73.93
2023-03-17T18:05:56.790Z,73.92
2023-03-17T18:08:24.806Z,73.67
2023-03-17T18:10:52.412Z,73.97
2023-03-17T18:13:19.486Z,74.25
2023-03-17T18:15:46.420Z,74.30
2023-03-17T18:18:13.211Z,74.76
2023-03-17T18:20:40.202Z,75.07
2023-03-17T18:23:08.000Z,75.02
2023-03-17T18:25:34.954Z,75.09
2023-03-17T18:28:01.955Z,75.33
2023-03-17T18:30:31.722Z,75.13
2023-03-17T18:33:04.880Z,74.85
2023-03-17T18:35:31.936Z,74.76
2023-03-17T18:37:58.855Z,75.02
2023-03-17T18:40:26.519Z,75.42
2023-03-17T18:42:53.957Z,75.94
2023-03-17T18:45:20.944Z,75.85
2023-03-17T18:47:47.743Z,75.88
2023-03-17T18:50:16.440Z,75.74
2023-03-17T18:52:44.004Z,75.87
2023-03-17T18:55:12.263Z,75.72
2023-03-17T18:57:39.057Z,75.93
2023-03-17T19:00:08.527Z,75.78
2023-03-17T19:02:36.346Z,76.36
2023-03-17T19:05:04.094Z,77.11
2023-03-17T19:07:30.829Z,76.72
2023-03-17T19:09:57.731Z,76.54
2023-03-17T19:12:24.791Z,76.35
2023-03-17T19:14:52.271Z,76.37
2023-03-17T19:17:19.384Z,75.78
2023-03-17T19:19:46.342Z,75.56
2023-03-17T19:22:14.148Z,75.62
2023-03-17T19:24:41.258Z,75.10
2023-03-17T19:27:08.239Z,75.51
2023-03-17T19:29:34.986Z,75.67
2023-03-17T19:32:02.407Z,75.56
2023-03-17T19:34:29.428Z,75.81
2023-03-17T19:36:56.384Z,76.00
2023-03-17T19:39:23.607Z,75.90
2023-03-17T19:41:53.316Z,75.80
2023-03-17T19:44:20.108Z,75.77
2023-03-17T19:46:46.868Z,75.22
2023-03-17T19:49:14.168Z,74.98
2023-03-17T19:51:41.935Z,74.86
2023-03-17T19:54:11.202Z,75.03
2023-03-17T19:56:38.776Z,74.99
2023-03-17T19:59:08.988Z,74.35
2023-03-17T20:01:37.876Z,74.20
2023-03-17T20:04:06.892Z,74.13
2023-03-17T20:06:34.734Z,74.42
2023-03-17T20:09:04.346Z,73.77
2023-03-17T20:11:34.019Z,73.38
2023-03-17T20:14:02.096Z,73.13
2023-03-17T20:16:31.907Z,72.88
2023-03-17T20:18:58.698Z,72.19
2023-03-17T20:21:25.906Z,72.13
2023-03-17T20:23:52.699Z,71.99
2023-03-17T20:26:20.050Z,71.91
2023-03-17T20:28:47.512Z,71.94
2023-03-17T20:31:14.368Z,71.81
2023-03-17T20:33:42.005Z,71.61
2023-03-17T20:36:09.418Z,71.81
2023-03-17T20:38:39.239Z,71.83
2023-03-17T20:41:12.212Z,71.85
2023-03-17T20:43:39.159Z,71.53
2023-03-17T20:46:08.719Z,71.40
2023-03-17T20:48:37.317Z,71.65
2023-03-17T20:51:06.202Z,71.73
2023-03-17T20:53:34.468Z,71.54
2023-03-17T20:56:01.499Z,71.87
2023-03-17T20:58:28.927Z,71.78
2023-03-17T21:00:57.044Z,71.93
2023-03-17T21:03:24.172Z,71.87
2023-03-17T21:05:51.230Z,71.61
2023-03-17T21:08:18.971Z,71.62
2023-03-17T21:10:45.768Z,71.85
2023-03-17T21:13:12.700Z,71.70
2023-03-17T21:15:40.136Z,71.78
2023-03-17T21:18:07.293Z,72.15
2023-03-17T21:20:34.272Z,72.04
2023-03-17T21:23:04.499Z,72.14
2023-03-17T21:25:31.482Z,71.80
2023-03-17T21:27:58.262Z,72.08
2023-03-17T21:30:25.030Z,72.13
2023-03-17T21:32:53.593Z,72.04
2023-03-17T21:35:21.999Z,71.86
2023-03-17T21:37:49.243Z,72.06
2023-03-17T21:40:16.800Z,72.89
2023-03-17T21:42:43.943Z,72.59
2023-03-17T21:45:10.830Z,72.76
2023-03-17T21:47:37.743Z,73.23
2023-03-17T21:50:05.267Z,73.34
2023-03-17T21:52:32.255Z,73.53
2023-03-17T21:54:59.687Z,73.37
2023-03-17T21:57:27.742Z,73.49
2023-03-17T21:59:54.648Z,73.58
2023-03-17T22:02:23.088Z,73.51
2023-03-17T22:04:50.163Z,73.69
2023-03-17T22:07:17.839Z,73.50
2023-03-17T22:09:44.925Z,73.50
2023-03-17T22:12:12.283Z,73.95
2023-03-17T22:14:39.421Z,73.55
2023-03-17T22:17:06.258Z,73.74
2023-03-17T22:19:32.999Z,73.57
2023-03-17T22:21:59.836Z,73.53
2023-03-17T22:24:26.633Z,73.39
2023-03-17T22:26:53.511Z,73.34
2023-03-17T22:29:20.293Z,73.26
2023-03-17T22:31:47.368Z,73.18
2023-03-17T22:34:14.129Z,73.06
2023-03-17T22:36:41.593Z,72.96
2023-03-17T22:39:11.932Z,73.17
2023-03-17T22:41:39.294Z,73.16
2023-03-17T22:44:08.359Z,73.41
2023-03-17T22:46:36.963Z,73.58
2023-03-17T22:49:04.605Z,73.70
2023-03-17T22:51:31.747Z,73.60
2023-03-17T22:53:58.541Z,73.89
2023-03-17T22:56:26.217Z,73.88
2023-03-17T22:58:54.193Z,74.05
2023-03-17T23:01:23.520Z,74.28
2023-03-17T23:03:50.583Z,74.54
2023-03-17T23:06:17.815Z,74.73
2023-03-17T23:08:45.977Z,74.86
2023-03-17T23:11:19.168Z,74.87
2023-03-17T23:13:47.712Z,74.97
2023-03-17T23:16:15.180Z,75.13
2023-03-17T23:18:45.449Z,75.47
2023-03-17T23:21:34.331Z,75.39
2023-03-17T23:24:01.277Z,75.37
2023-03-17T23:26:29.138Z,75.43
2023-03-17T23:28:56.229Z,75.48
2023-03-17T23:31:23.252Z,75.61
2023-03-17T23:33:50.552Z,75.57
2023-03-17T23:36:18.190Z,75.65
2023-03-17T23:38:45.653Z,75.77
2023-03-17T23:41:13.136Z,75.80
2023-03-17T23:43:40.781Z,76.00
2023-03-17T23:46:08.377Z,76.29
2023-03-17T23:48:35.610Z,76.04
2023-03-17T23:51:02.922Z,76.26
2023-03-17T23:53:30.070Z,76.36
2023-03-17T23:55:57.931Z,76.11
2023-03-17T23:58:24.968Z,75.97
